Time;durP1;ratioP1;P1;durP2;ratioP2;P2;SDS_P1;SDS_P2;PMS_P1;PMS_P2;Temp;Humidity;BMP_temperature;BMP_pressure;BME280_temperature;BME280_humidity;BME280_pressure;Samples;Min_cycle;Max_cycle;Signal;HPM_P1;HPM_P2
2023/03/10 00:01:22;;;;;;;18.83;15.48;;;2.20;88.40;;;;;;5054612;28;20335;-44
2023/03/10 00:03:49;;;;;;;21.27;15.75;;;2.30;88.30;;;;;;5048447;28;20025;-44
2023/03/10 00:06:21;;;;;;;22.65;15.27;;;2.30;88.40;;;;;;5035478;28;20039;-47
2023/03/10 00:08:51;;;;;;;21.98;14.73;;;2.30;88.30;;;;;;5053890;28;20438;-43
2023/03/10 00:11:18;;;;;;;20.50;15.18;;;2.30;88.50;;;;;;5039872;28;20037;-42
2023/03/10 00:13:45;;;;;;;20.70;14.35;;;2.20;88.40;;;;;;5034250;28;20049;-43
2023/03/10 00:16:25;;;;;;;19.48;13.18;;;2.20;88.40;;;;;;5034968;28;20025;-42
2023/03/10 00:18:54;;;;;;;19.35;14.82;;;2.20;88.50;;;;;;5033898;28;20148;-44
2023/03/10 00:21:23;;;;;;;20.58;14.40;;;2.20;88.60;;;;;;5053213;28;20056;-43
2023/03/10 00:23:52;;;;;;;19.90;14.50;;;2.20;88.70;;;;;;5053633;28;20108;-44
2023/03/10 00:26:21;;;;;;;20.00;13.67;;;2.20;88.60;;;;;;5047440;28;20032;-45
2023/03/10 00:28:49;;;;;;;20.23;13.90;;;2.10;88.50;;;;;;5033439;28;20665;-45
2023/03/10 00:31:18;;;;;;;21.05;14.63;;;2.20;88.60;;;;;;5033531;28;20033;-43
2023/03/10 00:33:45;;;;;;;;;;;2.20;88.60;;;;;;5034265;28;20044;-43
2023/03/10 00:36:21;;;;;;;20.10;15.48;;;2.20;88.40;;;;;;5050160;28;19913;-43
2023/03/10 00:38:50;;;;;;;21.05;15.55;;;2.20;88.40;;;;;;5034583;28;20030;-47
2023/03/10 00:41:19;;;;;;;21.13;15.53;;;2.10;88.40;;;;;;5033552;28;20030;-47
2023/03/10 00:43:45;;;;;;;;;;;2.20;88.50;;;;;;5033653;28;20336;-47
2023/03/10 00:46:12;;;;;;;20.67;15.30;;;2.20;88.40;;;;;;5039671;28;19924;-44
2023/03/10 00:48:40;;;;;;;20.10;14.38;;;2.10;88.60;;;;;;5035909;28;20093;-45
2023/03/10 00:51:08;;;;;;;22.55;14.57;;;2.10;88.50;;;;;;5053477;28;20025;-43
2023/03/10 00:53:47;;;;;;;21.38;15.80;;;2.10;88.40;;;;;;5052595;28;20116;-43
2023/03/10 00:56:14;;;;;;;19.95;14.13;;;2.00;88.60;;;;;;5043941;28;20455;-46
2023/03/10 00:58:40;;;;;;;21.10;15.48;;;2.10;88.50;;;;;;5032045;28;20083;-42
2023/03/10 01:01:23;;;;;;;23.58;16.70;;;2.00;88.70;;;;;;5033365;28;20029;-42
2023/03/10 01:03:50;;;;;;;22.30;15.98;;;2.00;88.90;;;;;;5037963;28;20033;-43
2023/03/10 01:06:25;;;;;;;24.85;16.75;;;2.00;89.00;;;;;;5052345;28;20415;-41
2023/03/10 01:08:51;;;;;;;19.40;15.05;;;2.00;88.90;;;;;;5040047;28;20049;-44
2023/03/10 01:11:22;;;;;;;23.85;16.58;;;2.00;89.10;;;;;;5032336;28;20351;-41
2023/03/10 01:13:52;;;;;;;24.40;16.08;;;1.90;88.90;;;;;;5032270;28;20055;-42
2023/03/10 01:16:20;;;;;;;23.33;16.05;;;1.90;89.10;;;;;;5031415;28;20390;-42
2023/03/10 01:18:49;;;;;;;24.30;17.17;;;1.90;89.10;;;;;;5032829;28;20033;-42
2023/03/10 01:21:23;;;;;;;25.35;18.08;;;1.90;89.30;;;;;;5032926;28;20034;-42
2023/03/10 01:23:51;;;;;;;25.58;19.02;;;1.90;89.20;;;;;;5032553;28;20045;-42
2023/03/10 01:26:19;;;;;;;26.00;17.27;;;1.90;89.30;;;;;;5048981;28;20382;-42
2023/03/10 01:28:47;;;;;;;27.45;18.33;;;1.90;89.10;;;;;;5033201;28;20057;-41
2023/03/10 01:31:13;;;;;;;25.08;18.30;;;1.90;89.00;;;;;;5049011;28;20088;-42
2023/03/10 01:33:41;;;;;;;30.52;19.60;;;1.90;89.00;;;;;;5033413;28;20344;-41
2023/03/10 01:36:09;;;;;;;29.47;20.03;;;1.90;89.00;;;;;;5034118;28;20036;-42
2023/03/10 01:38:37;;;;;;;34.65;21.48;;;1.90;88.90;;;;;;5033743;28;20291;-42
2023/03/10 01:41:11;;;;;;;32.58;21.70;;;1.90;88.80;;;;;;5033290;28;20422;-42
2023/03/10 01:43:56;;;;;;;38.13;24.20;;;1.90;88.60;;;;;;5033192;28;20501;-45
2023/03/10 01:46:58;;;;;;;33.65;22.13;;;1.90;88.80;;;;;;5048603;28;20045;-42
2023/03/10 01:49:50;;;;;;;38.03;24.95;;;1.90;88.70;;;;;;5032041;28;20025;-42
2023/03/10 01:52:35;;;;;;;40.20;25.02;;;2.00;88.80;;;;;;5031368;28;20126;-42
2023/03/10 01:55:12;;;;;;;45.08;28.58;;;2.00;88.80;;;;;;5032436;28;20022;-41
2023/03/10 01:57:49;;;;;;;49.03;30.15;;;2.00;88.90;;;;;;5033376;28;20022;-44
2023/03/10 02:00:20;;;;;;;48.45;29.90;;;2.00;88.90;;;;;;5032002;28;20105;-42
2023/03/10 02:03:11;;;;;;;45.90;30.13;;;2.00;89.10;;;;;;5032647;28;20033;-43
2023/03/10 02:05:48;;;;;;;48.67;29.88;;;2.00;89.20;;;;;;5033101;28;20029;-41
2023/03/10 02:08:17;;;;;;;48.47;30.13;;;1.90;89.00;;;;;;5031341;28;20029;-42
2023/03/10 02:10:47;;;;;;;48.95;29.90;;;2.00;88.90;;;;;;5028049;28;20065;-43
2023/03/10 02:13:15;;;;;;;47.30;29.98;;;1.90;89.00;;;;;;5011787;28;20447;-42
2023/03/10 02:15:42;;;;;;;46.17;28.25;;;1.90;89.10;;;;;;5011888;28;20079;-46
2023/03/10 02:18:14;;;;;;;45.92;30.25;;;1.90;89.20;;;;;;5002649;28;20519;-41
2023/03/10 02:21:18;;;;;;;48.22;30.10;;;1.90;89.10;;;;;;5012775;28;20053;-44
2023/03/10 02:24:26;;;;;;;45.53;28.23;;;2.00;89.20;;;;;;5012715;28;20034;-45
2023/03/10 02:27:14;;;;;;;44.35;29.17;;;2.00;89.10;;;;;;5012409;28;20034;-45
2023/03/10 02:30:11;;;;;;;46.67;29.92;;;2.00;89.10;;;;;;5017336;28;20034;-42
2023/03/10 02:32:43;;;;;;;45.58;29.83;;;1.90;89.20;;;;;;5016478;28;20049;-44
2023/03/10 02:35:11;;;;;;;46.65;30.33;;;1.90;89.10;;;;;;5015787;28;20540;-42
2023/03/10 02:37:40;;;;;;;47.33;30.38;;;1.90;89.10;;;;;;5017248;28;20022;-43
2023/03/10 02:40:43;;;;;;;42.97;28.63;;;1.90;89.10;;;;;;5016304;28;20045;-44
2023/03/10 02:43:30;;;;;;;43.05;28.25;;;1.90;89.10;;;;;;5017237;28;20087;-43
2023/03/10 02:46:09;;;;;;;44.33;29.48;;;1.90;89.10;;;;;;5016212;28;20045;-47
2023/03/10 02:48:39;;;;;;;42.78;29.23;;;1.90;89.20;;;;;;5017041;28;20347;-43
2023/03/10 02:51:12;;;;;;;39.90;26.60;;;1.90;89.20;;;;;;5017119;28;20030;-42
2023/03/10 02:53:41;;;;;;;39.95;26.33;;;1.90;89.20;;;;;;5015975;28;20030;-42
2023/03/10 02:56:09;;;;;;;37.75;25.15;;;1.90;89.40;;;;;;5015931;28;20034;-42
2023/03/10 02:58:36;;;;;;;33.90;22.52;;;1.90;89.30;;;;;;5016404;28;20034;-42
2023/03/10 03:01:03;;;;;;;37.33;23.35;;;1.80;89.30;;;;;;5016790;28;20041;-41
2023/03/10 03:03:31;;;;;;;34.25;22.80;;;1.80;89.40;;;;;;5015842;28;20026;-41
2023/03/10 03:05:59;;;;;;;34.72;22.85;;;1.80;89.60;;;;;;5016704;28;20034;-42
2023/03/10 03:08:32;;;;;;;35.03;22.75;;;1.80;89.60;;;;;;5016107;28;20099;-42
2023/03/10 03:11:12;;;;;;;31.38;20.20;;;1.70;89.80;;;;;;5035866;28;20037;-41
2023/03/10 03:13:38;;;;;;;31.80;20.63;;;1.70;89.90;;;;;;5051824;28;20037;-41
2023/03/10 03:16:09;;;;;;;33.08;21.70;;;1.70;89.90;;;;;;5034916;28;20032;-42
2023/03/10 03:18:36;;;;;;;31.63;21.23;;;1.80;89.90;;;;;;5034608;28;20478;-41
2023/03/10 03:21:08;;;;;;;29.70;20.02;;;1.80;89.90;;;;;;5018247;28;20033;-41
2023/03/10 03:23:34;;;;;;;28.67;19.67;;;1.80;89.90;;;;;;5036096;28;20337;-42
2023/03/10 03:26:01;;;;;;;28.90;19.80;;;1.70;89.80;;;;;;5035082;28;20100;-42
2023/03/10 03:28:28;;;;;;;29.92;19.65;;;1.70;89.70;;;;;;5035813;28;20026;-43
2023/03/10 03:30:54;;;;;;;26.38;17.63;;;1.70;89.50;;;;;;5035884;28;20029;-42
2023/03/10 03:33:22;;;;;;;26.20;18.63;;;1.70;89.50;;;;;;5050414;28;20040;-41
2023/03/10 03:35:51;;;;;;;29.30;19.00;;;1.70;89.40;;;;;;5055405;28;20025;-41
2023/03/10 03:38:19;;;;;;;28.58;17.25;;;1.70;89.50;;;;;;5034631;28;20029;-43
2023/03/10 03:40:47;;;;;;;29.27;20.17;;;1.70;89.50;;;;;;5035074;28;20083;-41
2023/03/10 03:43:14;;;;;;;24.58;16.92;;;1.70;89.40;;;;;;5051923;28;20357;-41
2023/03/10 03:45:40;;;;;;;23.73;16.70;;;1.70;89.30;;;;;;5053944;28;20361;-42
2023/03/10 03:48:08;;;;;;;27.52;18.17;;;1.70;89.30;;;;;;5055732;28;20028;-43
2023/03/10 03:50:35;;;;;;;27.83;17.60;;;1.70;89.20;;;;;;5039608;28;20026;-43
2023/03/10 03:53:03;;;;;;;28.40;17.77;;;1.70;89.00;;;;;;5034471;28;20037;-42
2023/03/10 03:55:30;;;;;;;23.33;15.98;;;1.70;88.90;;;;;;5035130;28;20025;-42
2023/03/10 03:57:56;;;;;;;26.50;18.27;;;1.70;88.70;;;;;;5039648;28;20032;-41
2023/03/10 04:00:27;;;;;;;25.52;17.67;;;1.70;88.60;;;;;;5055478;28;20086;-42
2023/03/10 04:02:55;;;;;;;26.00;16.50;;;1.70;88.60;;;;;;5054531;28;20033;-41
2023/03/10 04:05:23;;;;;;;25.52;16.02;;;1.70;88.60;;;;;;5042862;28;20037;-42
2023/03/10 04:07:51;;;;;;;23.02;15.60;;;1.80;88.40;;;;;;5050948;28;20379;-42
2023/03/10 04:10:22;;;;;;;23.83;15.70;;;1.80;88.30;;;;;;5050157;28;20381;-42
2023/03/10 04:12:54;;;;;;;24.85;15.85;;;1.80;88.10;;;;;;5034246;28;20053;-41
2023/03/10 04:15:21;;;;;;;27.85;16.20;;;1.80;87.60;;;;;;5035013;28;20362;-44
2023/03/10 04:17:48;;;;;;;25.40;15.52;;;1.80;87.50;;;;;;5035234;28;20021;-42
2023/03/10 04:20:17;;;;;;;23.33;16.35;;;1.80;87.40;;;;;;5034639;28;20025;-43
2023/03/10 04:22:44;;;;;;;23.33;15.25;;;1.90;87.40;;;;;;5034284;28;20102;-44
2023/03/10 04:25:10;;;;;;;24.65;16.13;;;1.90;87.30;;;;;;5034399;28;20048;-45
2023/03/10 04:27:39;;;;;;;25.25;18.60;;;1.80;87.40;;;;;;5033482;28;20520;-42
2023/03/10 04:30:08;;;;;;;27.40;18.27;;;1.90;87.30;;;;;;5034469;28;20041;-45
2023/03/10 04:32:33;;;;;;;28.42;18.92;;;1.90;87.70;;;;;;5034566;28;20017;-42
2023/03/10 04:35:01;;;;;;;28.23;19.75;;;1.90;88.10;;;;;;5059383;28;20440;-42
2023/03/10 04:37:30;;;;;;;29.85;20.20;;;1.90;88.20;;;;;;5054699;28;20053;-42
2023/03/10 04:40:00;;;;;;;29.20;18.48;;;1.80;88.50;;;;;;5054787;28;20036;-43
2023/03/10 04:42:26;;;;;;;32.50;20.70;;;1.80;88.50;;;;;;5054293;28;20032;-42
2023/03/10 04:44:55;;;;;;;30.80;20.95;;;1.80;88.50;;;;;;5043149;28;20053;-43
2023/03/10 04:47:25;;;;;;;27.90;18.98;;;1.80;88.50;;;;;;5033453;28;20026;-43
2023/03/10 04:49:52;;;;;;;33.45;21.15;;;1.70;88.40;;;;;;5034371;28;20037;-43
2023/03/10 04:52:18;;;;;;;28.48;18.70;;;1.70;88.50;;;;;;5033355;28;20469;-42
2023/03/10 04:54:44;;;;;;;32.40;20.50;;;1.70;88.60;;;;;;5033137;28;20029;-43
2023/03/10 04:57:11;;;;;;;33.45;19.10;;;1.70;88.60;;;;;;5033421;28;20040;-42
2023/03/10 04:59:39;;;;;;;31.23;19.92;;;1.70;88.50;;;;;;5043862;28;20437;-43
2023/03/10 05:02:06;;;;;;;28.83;19.65;;;1.60;88.60;;;;;;5052300;28;20044;-42
2023/03/10 05:04:32;;;;;;;27.63;19.23;;;1.60;88.60;;;;;;5040566;28;20064;-44
2023/03/10 05:06:57;;;;;;;28.77;19.20;;;1.60;88.50;;;;;;5033180;28;20163;-41
2023/03/10 05:09:23;;;;;;;31.42;20.80;;;1.60;88.40;;;;;;5015465;28;20049;-41
2023/03/10 05:11:50;;;;;;;29.08;20.00;;;1.50;88.50;;;;;;5033387;28;20025;-42
2023/03/10 05:14:17;;;;;;;33.20;20.27;;;1.50;88.30;;;;;;5033511;28;20167;-42
2023/03/10 05:16:47;;;;;;;33.28;20.48;;;1.50;88.20;;;;;;5032438;28;20116;-46
2023/03/10 05:19:15;;;;;;;29.95;18.73;;;1.50;88.40;;;;;;5032964;28;20037;-42
2023/03/10 05:21:43;;;;;;;28.77;20.77;;;1.50;88.50;;;;;;5033621;28;20033;-45
2023/03/10 05:24:13;;;;;;;27.73;19.38;;;1.50;88.60;;;;;;5033757;28;20116;-43
2023/03/10 05:26:40;;;;;;;31.73;20.63;;;1.50;88.80;;;;;;5033836;28;20041;-42
2023/03/10 05:29:07;;;;;;;31.80;19.65;;;1.50;88.90;;;;;;5033827;28;20029;-43
2023/03/10 05:31:36;;;;;;;26.98;18.42;;;1.50;88.70;;;;;;5033499;28;20017;-43
2023/03/10 05:34:02;;;;;;;29.45;19.58;;;1.50;88.70;;;;;;5033647;28;20116;-43
2023/03/10 05:36:30;;;;;;;28.73;18.38;;;1.50;88.60;;;;;;5033133;28;20068;-43
2023/03/10 05:38:59;;;;;;;29.15;20.40;;;1.50;88.40;;;;;;5033339;28;20022;-42
2023/03/10 05:41:26;;;;;;;31.73;19.48;;;1.50;88.50;;;;;;5032373;28;20449;-43
2023/03/10 05:43:54;;;;;;;32.10;19.92;;;1.50;88.60;;;;;;5033064;28;20046;-42
2023/03/10 05:46:22;;;;;;;27.95;18.20;;;1.50;88.60;;;;;;5033261;28;20040;-45
2023/03/10 05:48:49;;;;;;;26.35;18.90;;;1.50;88.40;;;;;;5032607;28;20033;-42
2023/03/10 05:51:16;;;;;;;31.02;20.67;;;1.50;88.30;;;;;;5016091;28;20029;-42
2023/03/10 05:53:44;;;;;;;34.13;19.85;;;1.50;88.30;;;;;;5033236;28;20033;-42
2023/03/10 05:56:15;;;;;;;33.10;21.52;;;1.50;88.20;;;;;;5033010;28;20029;-43
2023/03/10 05:58:43;;;;;;;29.13;20.45;;;1.50;88.50;;;;;;5043279;28;20096;-42
2023/03/10 06:01:10;;;;;;;30.20;20.35;;;1.50;88.50;;;;;;5031483;28;20045;-46
2023/03/10 06:03:37;;;;;;;31.52;19.33;;;1.50;88.50;;;;;;5035460;28;20092;-43
2023/03/10 06:06:09;;;;;;;28.52;19.33;;;1.50;88.50;;;;;;5035244;28;20079;-43
2023/03/10 06:08:37;;;;;;;35.03;20.65;;;1.50;88.50;;;;;;5051363;28;20086;-43
2023/03/10 06:11:08;;;;;;;30.27;19.65;;;1.50;88.60;;;;;;5052534;28;20354;-42
2023/03/10 06:13:34;;;;;;;30.15;20.75;;;1.50;88.50;;;;;;5052588;28;20053;-43
2023/03/10 06:16:02;;;;;;;31.70;19.52;;;1.50;88.60;;;;;;5045658;28;20060;-46
2023/03/10 06:18:35;;;;;;;30.73;20.10;;;1.50;88.40;;;;;;5032994;28;20071;-47
2023/03/10 06:21:05;;;;;;;30.70;19.90;;;1.50;88.40;;;;;;5032388;28;20376;-45
2023/03/10 06:23:32;;;;;;;31.27;21.42;;;1.50;88.30;;;;;;5047607;28;20021;-42
2023/03/10 06:26:07;;;;;;;33.50;20.23;;;1.50;88.20;;;;;;5032602;28;20121;-42
2023/03/10 06:28:45;;;;;;;30.02;19.05;;;1.50;88.10;;;;;;5031201;28;20093;-41
2023/03/10 06:31:23;;;;;;;32.03;20.40;;;1.50;88.00;;;;;;5048617;28;20025;-43
2023/03/10 06:33:51;;;;;;;28.50;19.38;;;1.50;88.00;;;;;;5040234;28;20459;-43
2023/03/10 06:36:20;;;;;;;26.55;17.80;;;1.50;88.10;;;;;;5032525;28;20442;-43
2023/03/10 06:38:46;;;;;;;29.38;19.20;;;1.60;88.20;;;;;;5032691;28;20053;-43
2023/03/10 06:41:15;;;;;;;29.05;19.42;;;1.50;87.90;;;;;;5032868;28;20112;-42
2023/03/10 06:43:43;;;;;;;28.27;19.00;;;1.50;87.80;;;;;;5032910;28;20066;-43
2023/03/10 06:46:12;;;;;;;28.77;18.63;;;1.60;87.50;;;;;;5031563;28;20045;-41
2023/03/10 06:48:39;;;;;;;29.85;18.92;;;1.60;87.50;;;;;;5031786;28;20033;-42
2023/03/10 06:51:13;;;;;;;28.77;18.58;;;1.60;87.60;;;;;;5048156;28;20057;-42
2023/03/10 06:53:40;;;;;;;28.73;19.15;;;1.60;87.60;;;;;;5015352;28;20579;-43
2023/03/10 06:56:15;;;;;;;26.92;17.42;;;1.60;87.60;;;;;;5032404;28;20035;-45
2023/03/10 06:58:43;;;;;;;33.63;19.27;;;1.60;87.50;;;;;;5039892;28;20094;-42
2023/03/10 07:01:41;;;;;;;29.30;19.95;;;1.60;87.40;;;;;;5052504;28;20025;-44
2023/03/10 07:04:13;;;;;;;27.15;18.08;;;1.50;87.40;;;;;;5051598;28;20630;-42
2023/03/10 07:06:43;;;;;;;28.02;18.10;;;1.60;87.60;;;;;;5051906;28;20037;-43
2023/03/10 07:09:08;;;;;;;;;;;1.60;87.50;;;;;;5033139;28;20057;-42
2023/03/10 07:11:36;;;;;;;25.65;18.35;;;1.60;87.50;;;;;;5032335;28;19912;-43
2023/03/10 07:14:03;;;;;;;29.25;20.35;;;1.50;87.50;;;;;;5051383;28;20330;-41
2023/03/10 07:16:34;;;;;;;27.33;18.67;;;1.50;87.50;;;;;;5052914;28;20025;-43
2023/03/10 07:19:02;;;;;;;27.35;18.13;;;1.50;87.90;;;;;;5036130;28;20031;-44
2023/03/10 07:21:29;;;;;;;26.58;17.77;;;1.50;87.90;;;;;;5035177;28;20096;-41
2023/03/10 07:23:57;;;;;;;28.77;18.98;;;1.50;87.70;;;;;;5037028;28;20080;-42
2023/03/10 07:26:24;;;;;;;25.23;16.83;;;1.50;87.80;;;;;;5054956;28;20048;-44
2023/03/10 07:28:55;;;;;;;26.58;17.20;;;1.50;87.90;;;;;;5055672;28;20032;-43
2023/03/10 07:31:21;;;;;;;27.50;18.85;;;1.40;88.00;;;;;;5055661;28;20078;-43
2023/03/10 07:33:48;;;;;;;31.58;18.02;;;1.40;88.20;;;;;;5038927;28;20026;-43
2023/03/10 07:36:17;;;;;;;30.35;19.02;;;1.40;88.50;;;;;;5035121;28;20071;-43
2023/03/10 07:38:45;;;;;;;32.92;19.50;;;1.30;88.80;;;;;;5034915;28;20036;-45
2023/03/10 07:41:19;;;;;;;28.70;20.02;;;1.30;89.00;;;;;;5035136;28;20416;-42
2023/03/10 07:43:46;;;;;;;26.48;18.88;;;1.20;89.20;;;;;;5035019;28;20060;-41
2023/03/10 07:46:15;;;;;;;27.30;18.33;;;1.20;89.40;;;;;;5035103;28;20026;-40
2023/03/10 07:48:41;;;;;;;28.73;18.50;;;1.20;89.40;;;;;;5033717;28;20139;-42
2023/03/10 07:51:11;;;;;;;28.50;19.27;;;1.20;89.60;;;;;;5034053;28;20318;-41
2023/03/10 07:53:38;;;;;;;;;;;1.20;89.70;;;;;;5035086;28;20014;-42
2023/03/10 07:56:07;;;;;;;29.00;17.38;;;1.20;89.90;;;;;;5034523;28;20699;-44
2023/03/10 07:58:47;;;;;;;29.63;17.90;;;1.10;90.10;;;;;;5033193;28;20027;-42
2023/03/10 08:01:19;;;;;;;30.42;18.17;;;1.10;90.10;;;;;;5034495;28;20022;-43
2023/03/10 08:03:46;;;;;;;32.05;19.23;;;1.00;90.10;;;;;;5050448;28;20150;-48
2023/03/10 08:06:23;;;;;;;26.98;18.90;;;1.00;90.30;;;;;;5049679;28;20032;-46
2023/03/10 08:08:51;;;;;;;30.35;19.77;;;1.00;90.30;;;;;;5016592;28;20049;-45
2023/03/10 08:11:19;;;;;;;30.38;18.83;;;1.00;90.50;;;;;;5034726;28;20032;-45
2023/03/10 08:13:48;;;;;;;29.58;19.02;;;1.00;90.60;;;;;;5034259;28;20901;-46
2023/03/10 08:16:22;;;;;;;28.00;18.38;;;1.00;90.60;;;;;;5039823;28;20036;-46
2023/03/10 08:18:53;;;;;;;29.58;18.83;;;1.00;90.60;;;;;;5053628;28;20037;-49
2023/03/10 08:21:24;;;;;;;29.73;17.83;;;1.00;90.70;;;;;;5053512;28;20154;-48
2023/03/10 08:23:49;;;;;;;29.35;18.15;;;0.90;90.60;;;;;;5045898;28;20041;-49
2023/03/10 08:26:17;;;;;;;27.00;18.65;;;1.00;90.70;;;;;;5049092;28;20037;-53
2023/03/10 08:28:44;;;;;;;28.08;17.25;;;1.00;90.70;;;;;;5052404;28;20025;-51
2023/03/10 08:31:14;;;;;;;27.08;17.92;;;1.00;90.80;;;;;;5053717;28;20033;-51
2023/03/10 08:33:42;;;;;;;28.50;19.42;;;0.90;90.60;;;;;;5009334;28;20026;-53
2023/03/10 08:36:27;;;;;;;33.55;19.25;;;0.90;90.60;;;;;;5050293;28;20068;-50
2023/03/10 08:38:57;;;;;;;27.00;17.73;;;0.90;90.70;;;;;;5034832;28;20097;-51
2023/03/10 08:41:25;;;;;;;29.67;18.90;;;0.90;90.60;;;;;;5034576;28;20090;-49
2023/03/10 08:43:57;;;;;;;31.92;18.65;;;1.00;90.80;;;;;;5033719;28;20119;-51
2023/03/10 08:46:26;;;;;;;29.08;19.10;;;1.00;90.80;;;;;;5033725;28;20430;-49
2023/03/10 08:48:54;;;;;;;32.35;18.40;;;1.00;90.80;;;;;;5033441;28;20098;-54
2023/03/10 08:51:30;;;;;;;30.58;17.60;;;1.00;90.90;;;;;;5034576;28;20021;-53
2023/03/10 08:53:56;;;;;;;29.00;17.63;;;1.00;91.00;;;;;;5036624;28;20023;-50
2023/03/10 08:56:23;;;;;;;27.42;18.05;;;1.00;90.90;;;;;;5053275;28;20029;-53
2023/03/10 08:58:48;;;;;;;27.08;19.08;;;1.00;90.80;;;;;;5053067;28;20037;-54
2023/03/10 09:01:15;;;;;;;32.90;18.67;;;1.00;90.80;;;;;;5051096;28;20033;-56
2023/03/10 09:03:44;;;;;;;30.77;18.35;;;1.00;90.90;;;;;;5052130;28;20060;-50
2023/03/10 09:06:11;;;;;;;30.50;19.42;;;1.00;91.00;;;;;;5051623;28;20025;-55
2023/03/10 09:08:40;;;;;;;31.58;19.70;;;1.00;91.10;;;;;;5035569;28;20037;-50
2023/03/10 09:11:07;;;;;;;29.38;19.30;;;1.00;91.00;;;;;;5033374;28;20112;-52
2023/03/10 09:13:38;;;;;;;27.70;18.45;;;1.00;91.10;;;;;;5033281;28;20108;-54
2023/03/10 09:16:08;;;;;;;30.45;18.08;;;1.00;91.30;;;;;;5033171;28;20029;-49
2023/03/10 09:18:34;;;;;;;28.88;18.80;;;1.00;91.40;;;;;;5033222;28;20050;-52
2023/03/10 09:21:03;;;;;;;29.65;19.55;;;1.00;91.40;;;;;;5033116;28;20017;-51
2023/03/10 09:23:32;;;;;;;31.27;20.77;;;1.00;91.40;;;;;;5048372;28;20044;-48
2023/03/10 09:25:59;;;;;;;32.83;21.38;;;1.00;91.40;;;;;;5038514;28;20098;-53
2023/03/10 09:28:31;;;;;;;28.45;19.27;;;1.00;91.50;;;;;;5051781;28;20111;-49
2023/03/10 09:30:58;;;;;;;29.10;20.27;;;1.00;91.50;;;;;;5036697;28;20038;-49
2023/03/10 09:33:26;;;;;;;37.65;24.00;;;1.00;91.60;;;;;;5032761;28;20082;-49
2023/03/10 09:35:55;;;;;;;31.10;21.35;;;1.00;91.60;;;;;;5032491;28;20363;-50
2023/03/10 09:38:22;;;;;;;32.53;19.50;;;1.00;91.70;;;;;;5032283;28;20022;-49
2023/03/10 09:41:00;;;;;;;33.60;20.65;;;1.10;91.80;;;;;;5033799;28;20033;-47
2023/03/10 09:43:29;;;;;;;32.47;21.15;;;1.10;91.70;;;;;;5032496;28;20045;-47
2023/03/10 09:46:12;;;;;;;31.43;20.20;;;1.00;91.70;;;;;;5032508;28;20033;-47
2023/03/10 09:48:57;;;;;;;31.42;20.38;;;1.20;91.80;;;;;;5015567;28;20061;-47
2023/03/10 09:51:27;;;;;;;32.13;20.27;;;1.10;91.70;;;;;;5031952;28;20045;-49
2023/03/10 09:54:20;;;;;;;33.35;19.08;;;1.10;91.70;;;;;;5032402;28;20096;-48
2023/03/10 09:56:47;;;;;;;30.85;19.73;;;1.20;91.70;;;;;;5033232;28;20336;-45
2023/03/10 09:59:38;;;;;;;27.33;18.60;;;1.20;91.60;;;;;;5033452;28;20731;-45
2023/03/10 10:02:30;;;;;;;35.67;20.55;;;1.20;91.70;;;;;;5032220;28;20414;-45
2023/03/10 10:05:01;;;;;;;32.45;18.73;;;1.20;91.70;;;;;;5031910;28;20114;-45
2023/03/10 10:07:41;;;;;;;28.13;16.75;;;1.20;91.70;;;;;;5031988;28;20037;-45
2023/03/10 10:10:28;;;;;;;30.20;17.80;;;1.20;91.70;;;;;;5031623;28;20136;-46
2023/03/10 10:13:01;;;;;;;31.98;19.38;;;1.20;91.80;;;;;;5031944;28;20486;-45
2023/03/10 10:15:30;;;;;;;32.10;20.05;;;1.10;91.70;;;;;;5016209;28;20029;-45
2023/03/10 10:18:27;;;;;;;31.38;19.58;;;1.20;91.90;;;;;;5048064;28;20443;-45
2023/03/10 10:21:08;;;;;;;30.15;17.80;;;1.10;91.90;;;;;;5036829;28;20060;-45
2023/03/10 10:24:01;;;;;;;31.83;18.20;;;1.10;92.20;;;;;;5036603;28;20025;-45
2023/03/10 10:26:35;;;;;;;32.08;23.15;;;1.20;92.30;;;;;;5050528;28;20085;-45
2023/03/10 10:29:31;;;;;;;35.50;23.15;;;1.20;92.20;;;;;;5052642;28;20033;-45
2023/03/10 10:32:05;;;;;;;36.53;25.10;;;1.30;92.30;;;;;;5047226;28;20048;-45
2023/03/10 10:34:31;;;;;;;36.30;24.20;;;1.30;92.40;;;;;;5032514;28;20021;-44
2023/03/10 10:36:59;;;;;;;52.72;36.47;;;1.20;92.20;;;;;;5032165;28;20470;-44
2023/03/10 10:39:46;;;;;;;40.58;27.13;;;1.30;92.30;;;;;;5031749;28;20459;-46
2023/03/10 10:42:34;;;;;;;31.17;20.80;;;1.30;92.30;;;;;;5031851;28;20041;-47
2023/03/10 10:45:37;;;;;;;32.88;19.65;;;1.30;92.30;;;;;;5032716;28;20032;-45
2023/03/10 10:48:07;;;;;;;29.45;20.15;;;1.40;92.30;;;;;;5033758;28;20094;-45
2023/03/10 10:50:36;;;;;;;34.10;19.60;;;1.30;92.30;;;;;;5036507;28;20041;-46
2023/03/10 10:53:23;;;;;;;32.15;19.08;;;1.40;92.50;;;;;;5035756;28;20099;-47
2023/03/10 10:56:18;;;;;;;29.40;20.00;;;1.40;92.40;;;;;;5047342;28;20485;-46
2023/03/10 10:59:19;;;;;;;33.97;21.70;;;1.30;92.40;;;;;;5056374;28;20445;-49
2023/03/10 11:01:57;;;;;;;32.08;18.77;;;1.40;92.50;;;;;;5054233;28;20021;-47
2023/03/10 11:04:24;;;;;;;26.83;19.15;;;1.40;92.40;;;;;;5056446;28;20037;-47
2023/03/10 11:07:08;;;;;;;32.30;19.98;;;1.30;92.30;;;;;;5038075;28;20116;-50
2023/03/10 11:09:37;;;;;;;30.17;19.42;;;1.40;92.30;;;;;;5035272;28;20045;-49
2023/03/10 11:12:20;;;;;;;29.42;19.90;;;1.30;92.20;;;;;;5043914;28;20052;-47
2023/03/10 11:15:07;;;;;;;29.88;21.30;;;1.20;92.30;;;;;;5056187;28;20041;-47
2023/03/10 11:18:07;;;;;;;29.27;19.27;;;1.30;92.40;;;;;;5039799;28;20041;-48
2023/03/10 11:20:52;;;;;;;30.27;19.70;;;1.30;92.50;;;;;;5036377;28;20026;-47
2023/03/10 11:23:56;;;;;;;33.97;21.83;;;1.30;92.60;;;;;;5036007;28;20109;-46
2023/03/10 11:26:43;;;;;;;27.70;18.63;;;1.40;92.60;;;;;;5035495;28;20033;-48
2023/03/10 11:29:36;;;;;;;27.13;18.75;;;1.40;92.70;;;;;;5035971;28;20529;-47
2023/03/10 11:32:21;;;;;;;29.65;19.65;;;1.40;92.80;;;;;;5034892;28;20042;-49
2023/03/10 11:34:58;;;;;;;32.65;19.88;;;1.50;92.70;;;;;;5035626;28;20447;-47
2023/03/10 11:38:01;;;;;;;27.42;19.33;;;1.50;92.60;;;;;;5035048;28;20159;-50
2023/03/10 11:40:51;;;;;;;27.92;19.10;;;1.60;92.70;;;;;;5038436;28;20175;-49
2023/03/10 11:43:38;;;;;;;25.67;19.90;;;1.70;92.70;;;;;;5053659;28;20033;-50
2023/03/10 11:46:17;;;;;;;29.70;20.67;;;1.80;92.80;;;;;;5035034;28;20111;-49
2023/03/10 11:49:26;;;;;;;25.23;18.50;;;1.90;92.70;;;;;;5034902;28;20029;-52
2023/03/10 11:52:15;;;;;;;30.60;19.90;;;1.90;92.70;;;;;;5035190;28;20026;-49
2023/03/10 11:54:58;;;;;;;26.67;19.05;;;1.90;92.50;;;;;;5034495;28;20048;-55
2023/03/10 11:57:43;;;;;;;26.52;17.58;;;1.90;92.40;;;;;;5033854;28;20454;-54
2023/03/10 12:00:51;;;;;;;25.08;17.92;;;2.00;92.30;;;;;;5046562;28;20455;-53
2023/03/10 12:03:47;;;;;;;26.00;19.05;;;1.90;92.00;;;;;;5033333;28;20032;-58
2023/03/10 12:06:37;;;;;;;25.23;18.02;;;1.90;92.00;;;;;;5034075;28;20041;-56
2023/03/10 12:09:06;;;;;;;26.70;20.08;;;2.00;91.90;;;;;;5034585;28;20079;-56
2023/03/10 12:11:45;;;;;;;28.43;18.70;;;2.10;92.00;;;;;;5034236;28;20030;-56
2023/03/10 12:14:13;;;;;;;28.20;19.25;;;2.10;91.70;;;;;;5035074;28;20267;-58
2023/03/10 12:16:43;;;;;;;25.25;17.50;;;2.20;91.60;;;;;;5036848;28;20320;-57
2023/03/10 12:19:10;;;;;;;24.42;19.77;;;2.30;91.50;;;;;;5035071;28;20049;-57
2023/03/10 12:21:36;;;;;;;23.25;17.20;;;2.30;91.30;;;;;;5035097;28;20064;-56
2023/03/10 12:24:23;;;;;;;25.75;16.92;;;2.40;91.50;;;;;;5034801;28;20060;-56
2023/03/10 12:27:01;;;;;;;23.23;16.70;;;2.40;91.10;;;;;;5034713;28;20095;-53
2023/03/10 12:29:34;;;;;;;29.02;16.30;;;2.40;90.70;;;;;;5044719;28;20033;-54
2023/03/10 12:32:01;;;;;;;22.20;15.75;;;2.40;90.80;;;;;;5054819;28;20331;-53
2023/03/10 12:34:34;;;;;;;20.77;16.15;;;2.50;90.90;;;;;;5054489;28;20029;-51
2023/03/10 12:37:21;;;;;;;22.52;16.52;;;2.50;90.90;;;;;;5054042;28;20059;-51
2023/03/10 12:39:52;;;;;;;23.13;16.70;;;2.60;91.00;;;;;;5034936;28;20136;-54
2023/03/10 12:42:38;;;;;;;22.70;15.48;;;2.60;91.00;;;;;;5033822;28;20096;-50
2023/03/10 12:45:27;;;;;;;20.83;15.25;;;2.60;90.60;;;;;;5034649;28;20203;-51
2023/03/10 12:48:18;;;;;;;21.90;16.30;;;2.60;90.60;;;;;;5034379;28;20028;-48
2023/03/10 12:51:01;;;;;;;25.85;17.92;;;2.50;90.50;;;;;;5033326;28;20037;-51
2023/03/10 12:53:48;;;;;;;25.88;17.23;;;2.60;90.60;;;;;;5033867;28;20105;-48
2023/03/10 12:56:38;;;;;;;23.80;15.70;;;2.60;90.60;;;;;;5033881;28;20521;-49
2023/03/10 12:59:29;;;;;;;23.15;16.08;;;2.60;90.60;;;;;;5034044;28;20042;-50
2023/03/10 13:02:00;;;;;;;25.88;17.60;;;2.60;90.50;;;;;;5034143;28;20029;-51
2023/03/10 13:04:30;;;;;;;22.38;16.17;;;2.40;90.60;;;;;;5033297;28;20036;-48
2023/03/10 13:07:02;;;;;;;23.33;16.38;;;2.40;90.80;;;;;;5034434;28;20043;-49
2023/03/10 13:09:51;;;;;;;25.75;17.42;;;2.50;91.00;;;;;;5033745;28;20413;-48